createdAt,value
2019-02-07T00:01:31.179Z,23.10
2019-02-07T00:04:08.387Z,23.20
2019-02-07T00:06:45.545Z,23.30
2019-02-07T00:09:23.624Z,23.40
2019-02-07T00:12:00.756Z,23.60
2019-02-07T00:14:39.735Z,23.70
2019-02-07T00:17:15.790Z,23.70
2019-02-07T00:19:52.775Z,23.70
2019-02-07T00:22:29.944Z,23.80
2019-02-07T00:25:07.288Z,23.80
2019-02-07T00:27:44.060Z,24.00
2019-02-07T00:30:21.615Z,24.00
2019-02-07T00:32:58.685Z,24.00
2019-02-07T00:35:35.342Z,23.90
2019-02-07T00:38:12.214Z,24.00
2019-02-07T00:40:49.077Z,24.10
2019-02-07T00:43:26.169Z,24.10
2019-02-07T00:46:03.280Z,24.20
2019-02-07T00:48:40.306Z,24.20
2019-02-07T00:51:17.125Z,24.30
2019-02-07T00:53:53.877Z,24.30
2019-02-07T00:56:30.594Z,24.50
2019-02-07T00:59:07.807Z,24.70
2019-02-07T01:01:44.334Z,24.80
2019-02-07T01:04:22.394Z,24.90
2019-02-07T01:06:59.340Z,24.90
2019-02-07T01:09:36.123Z,25.00
2019-02-07T01:12:12.902Z,25.20
2019-02-07T01:14:49.207Z,25.30
2019-02-07T01:17:26.280Z,25.40
2019-02-07T01:20:03.454Z,25.40
2019-02-07T01:22:41.158Z,25.40
2019-02-07T01:25:20.840Z,25.50
2019-02-07T01:27:57.964Z,25.60
2019-02-07T01:30:34.895Z,25.70
2019-02-07T01:33:11.591Z,25.80
2019-02-07T01:35:48.832Z,25.90
2019-02-07T01:38:25.802Z,25.90
2019-02-07T01:41:02.367Z,26.00
2019-02-07T01:43:39.590Z,26.10
2019-02-07T01:46:16.401Z,26.10
2019-02-07T01:48:53.384Z,26.30
2019-02-07T01:51:30.480Z,26.40
2019-02-07T01:54:07.714Z,26.60
2019-02-07T01:56:44.825Z,26.70
2019-02-07T01:59:21.540Z,26.80
2019-02-07T02:01:57.887Z,26.80
2019-02-07T02:04:35.044Z,26.90
2019-02-07T02:07:12.939Z,27.00
2019-02-07T02:09:50.324Z,27.00
2019-02-07T02:12:28.636Z,27.20
2019-02-07T02:15:06.445Z,27.30
2019-02-07T02:17:44.059Z,27.30
2019-02-07T02:20:21.057Z,27.40
2019-02-07T02:22:58.439Z,27.40
2019-02-07T02:25:35.342Z,27.60
2019-02-07T02:28:12.307Z,27.70
2019-02-07T02:30:49.127Z,27.90
2019-02-07T02:33:25.901Z,28.00
2019-02-07T02:36:02.556Z,28.00
2019-02-07T02:38:39.660Z,28.20
2019-02-07T02:41:17.165Z,28.10
2019-02-07T02:43:53.742Z,28.20
2019-02-07T02:46:30.637Z,28.40
2019-02-07T02:49:07.588Z,28.60
2019-02-07T02:51:45.655Z,28.70
2019-02-07T02:54:42.192Z,28.70
2019-02-07T02:57:19.502Z,28.80
2019-02-07T02:59:56.547Z,28.90
2019-02-07T03:02:50.161Z,29.00
2019-02-07T03:05:43.830Z,29.10
2019-02-07T03:08:39.038Z,29.40
2019-02-07T03:11:41.063Z,29.50
2019-02-07T03:14:36.179Z,29.40
2019-02-07T03:17:49.205Z,29.70
2019-02-07T03:20:48.224Z,29.70
2019-02-07T03:23:41.894Z,30.00
2019-02-07T03:26:29.977Z,30.20
2019-02-07T03:29:23.696Z,30.10
2019-02-07T03:32:16.869Z,30.40
2019-02-07T03:35:06.694Z,30.50
2019-02-07T03:37:55.292Z,30.50
2019-02-07T03:40:52.462Z,30.30
2019-02-07T03:43:57.186Z,30.60
2019-02-07T03:46:55.198Z,30.60
2019-02-07T03:49:48.885Z,30.60
2019-02-07T03:52:50.011Z,30.70
2019-02-07T03:55:54.403Z,30.90
2019-02-07T03:58:47.510Z,30.90
2019-02-07T04:01:40.938Z,31.10
2019-02-07T04:04:41.865Z,31.10
2019-02-07T04:07:43.221Z,31.10
2019-02-07T04:10:36.495Z,31.30
2019-02-07T04:13:31.738Z,31.30
2019-02-07T04:16:20.152Z,31.40
2019-02-07T04:19:21.846Z,31.60
2019-02-07T04:22:17.100Z,31.70
2019-02-07T04:25:14.988Z,31.90
2019-02-07T04:28:10.283Z,31.90
2019-02-07T04:31:11.242Z,32.00
2019-02-07T04:34:01.315Z,32.10
2019-02-07T04:36:59.029Z,31.90
2019-02-07T04:39:57.283Z,32.20
2019-02-07T04:42:52.129Z,32.50
2019-02-07T04:45:41.378Z,32.40
2019-02-07T04:48:45.476Z,32.40
2019-02-07T04:51:40.010Z,32.60
2019-02-07T04:54:29.224Z,32.60
2019-02-07T04:57:36.128Z,32.60
2019-02-07T05:00:27.044Z,32.30
2019-02-07T05:03:24.283Z,32.50
2019-02-07T05:06:12.568Z,32.90
2019-02-07T05:09:06.508Z,33.00
2019-02-07T05:12:01.930Z,33.00
2019-02-07T05:15:06.544Z,33.10
2019-02-07T05:18:04.011Z,33.20
2019-02-07T05:21:08.138Z,33.10
2019-02-07T05:24:06.352Z,33.10
2019-02-07T05:27:03.976Z,33.00
2019-02-07T05:30:01.958Z,33.10
2019-02-07T05:33:15.487Z,33.30
2019-02-07T05:36:11.410Z,33.40
2019-02-07T05:38:59.606Z,33.60
2019-02-07T05:41:53.466Z,33.50
2019-02-07T05:44:48.178Z,33.40
2019-02-07T05:47:43.025Z,33.70
2019-02-07T05:50:53.508Z,33.60
2019-02-07T05:53:51.058Z,33.90
2019-02-07T05:56:45.244Z,33.90
2019-02-07T05:59:38.140Z,34.10
2019-02-07T06:02:39.408Z,34.30
2019-02-07T06:05:30.816Z,34.00
2019-02-07T06:08:21.825Z,34.10
2019-02-07T06:11:34.117Z,34.00
2019-02-07T06:14:27.277Z,33.90
2019-02-07T06:17:20.941Z,34.10
2019-02-07T06:20:31.924Z,34.10
2019-02-07T06:23:34.388Z,34.30
2019-02-07T06:26:29.385Z,34.20
2019-02-07T06:29:35.956Z,34.10
2019-02-07T06:32:28.123Z,34.30
2019-02-07T06:35:24.045Z,34.40
2019-02-07T06:38:18.661Z,34.70
2019-02-07T06:41:17.308Z,34.60
2019-02-07T06:44:10.921Z,34.70
2019-02-07T06:47:13.570Z,34.90
2019-02-07T06:50:03.093Z,34.70
2019-02-07T06:52:46.055Z,34.90
2019-02-07T06:55:42.532Z,35.20
2019-02-07T06:58:37.310Z,35.10
2019-02-07T07:01:50.308Z,35.00
2019-02-07T07:04:43.073Z,35.00
2019-02-07T07:07:44.019Z,35.30
2019-02-07T07:10:54.089Z,35.30
2019-02-07T07:13:45.839Z,35.30
2019-02-07T07:16:59.077Z,35.30
2019-02-07T07:19:52.720Z,35.40
2019-02-07T07:22:54.168Z,35.10
2019-02-07T07:25:52.783Z,35.30
2019-02-07T07:28:41.452Z,35.50
2019-02-07T07:31:37.043Z,35.30
2019-02-07T07:34:30.710Z,35.40
2019-02-07T07:37:38.977Z,35.50
2019-02-07T07:40:39.971Z,35.50
2019-02-07T07:43:53.401Z,35.40
2019-02-07T07:46:58.434Z,35.30
2019-02-07T07:49:53.585Z,35.30
2019-02-07T07:52:51.418Z,35.60
2019-02-07T07:55:55.740Z,35.60
2019-02-07T07:58:48.910Z,35.40
2019-02-07T08:01:44.424Z,35.50
2019-02-07T08:04:45.457Z,35.10
2019-02-07T08:07:49.477Z,35.20
2019-02-07T08:10:47.457Z,35.20
2019-02-07T08:13:41.939Z,35.10
2019-02-07T08:16:37.010Z,35.20
2019-02-07T08:19:32.167Z,35.20
2019-02-07T08:22:25.940Z,35.10
2019-02-07T08:25:21.167Z,35.10
2019-02-07T08:28:11.826Z,35.10
2019-02-07T08:31:02.735Z,35.30
2019-02-07T08:33:55.337Z,35.20
2019-02-07T08:36:50.312Z,35.50
2019-02-07T08:39:50.699Z,35.60
2019-02-07T08:42:49.427Z,35.50
2019-02-07T08:46:03.057Z,35.40
2019-02-07T08:49:04.798Z,35.40
2019-02-07T08:51:58.201Z,35.10
2019-02-07T08:55:08.987Z,35.20
2019-02-07T08:58:01.539Z,35.10
2019-02-07T09:00:59.827Z,34.90
2019-02-07T09:04:00.637Z,34.80
2019-02-07T09:06:58.093Z,34.80
2019-02-07T09:09:41.741Z,34.80
2019-02-07T09:12:46.386Z,34.60
2019-02-07T09:15:30.636Z,34.60
2019-02-07T09:18:24.328Z,34.50
2019-02-07T09:21:16.933Z,34.50
2019-02-07T09:24:20.669Z,34.40
2019-02-07T09:27:17.163Z,34.40
2019-02-07T09:30:30.415Z,34.20
2019-02-07T09:33:20.071Z,34.10
2019-02-07T09:36:33.542Z,34.00
2019-02-07T09:39:29.191Z,33.90
2019-02-07T09:42:22.944Z,33.80
2019-02-07T09:45:22.938Z,33.80
2019-02-07T09:48:21.647Z,33.80
2019-02-07T09:51:12.135Z,33.80
2019-02-07T09:54:07.759Z,33.70
2019-02-07T09:56:54.321Z,33.60
2019-02-07T09:59:50.525Z,33.40
2019-02-07T10:02:45.194Z,33.30
2019-02-07T10:05:40.414Z,33.30
2019-02-07T10:08:28.867Z,33.20
2019-02-07T10:11:26.865Z,33.10
2019-02-07T10:14:15.230Z,32.90
2019-02-07T10:17:13.553Z,32.70
2019-02-07T10:20:11.847Z,32.60
2019-02-07T10:23:07.184Z,32.40
2019-02-07T10:26:14.248Z,32.20
2019-02-07T10:29:18.862Z,32.10
2019-02-07T10:32:12.551Z,32.00
2019-02-07T10:35:06.428Z,31.90
2019-02-07T10:37:55.237Z,31.70
2019-02-07T10:40:49.765Z,31.40
2019-02-07T10:43:38.865Z,31.20
2019-02-07T10:46:32.868Z,30.80
2019-02-07T10:49:26.386Z,30.60
2019-02-07T10:52:20.682Z,30.30
2019-02-07T10:55:14.357Z,30.10
2019-02-07T10:58:19.093Z,30.20
2019-02-07T11:01:12.383Z,30.30
2019-02-07T11:04:20.256Z,30.30
2019-02-07T11:07:15.151Z,30.10
2019-02-07T11:10:00.572Z,29.70
2019-02-07T11:12:57.889Z,29.40
2019-02-07T11:16:08.505Z,29.20
2019-02-07T11:19:04.495Z,29.10
2019-02-07T11:22:00.820Z,28.90
2019-02-07T11:24:54.196Z,28.90
2019-02-07T11:27:48.266Z,28.90
2019-02-07T11:30:43.007Z,28.90
2019-02-07T11:33:45.323Z,28.70
2019-02-07T11:36:54.189Z,28.50
2019-02-07T11:39:46.571Z,28.40
2019-02-07T11:42:44.688Z,28.40
2019-02-07T11:45:32.028Z,28.20
2019-02-07T11:48:45.784Z,28.00
2019-02-07T11:51:32.888Z,27.90
2019-02-07T11:54:39.463Z,27.80
2019-02-07T11:57:27.554Z,27.70
2019-02-07T12:00:40.554Z,27.70
2019-02-07T12:03:35.582Z,27.80
2019-02-07T12:06:29.621Z,27.70
2019-02-07T12:09:36.937Z,27.60
2019-02-07T12:12:51.980Z,27.60
2019-02-07T12:15:47.006Z,27.70
2019-02-07T12:18:42.933Z,27.70
2019-02-07T12:21:39.291Z,27.60
2019-02-07T12:24:37.859Z,27.50
2019-02-07T12:27:32.931Z,27.20
2019-02-07T12:30:55.693Z,27.10
2019-02-07T12:34:06.563Z,26.90
2019-02-07T12:37:07.922Z,26.90
2019-02-07T12:40:13.379Z,26.90
2019-02-07T12:43:06.643Z,26.90
2019-02-07T12:46:02.361Z,26.90
2019-02-07T12:48:51.481Z,27.10
2019-02-07T12:51:45.201Z,27.00
2019-02-07T12:54:38.356Z,26.80
2019-02-07T12:57:35.916Z,26.70
2019-02-07T13:00:31.251Z,26.50
2019-02-07T13:03:25.615Z,26.50
2019-02-07T13:06:19.017Z,26.50
2019-02-07T13:09:12.979Z,26.40
2019-02-07T13:12:09.279Z,26.30
2019-02-07T13:14:58.905Z,26.20
2019-02-07T13:17:54.213Z,26.30
2019-02-07T13:20:49.616Z,26.40
2019-02-07T13:23:43.441Z,26.30
2019-02-07T13:26:39.679Z,26.10
2019-02-07T13:29:43.635Z,26.00
2019-02-07T13:32:37.816Z,26.00
2019-02-07T13:35:28.688Z,26.00
2019-02-07T13:38:29.979Z,25.90
2019-02-07T13:41:24.670Z,25.80
2019-02-07T13:44:29.001Z,25.80
2019-02-07T13:47:29.680Z,25.80
2019-02-07T13:50:25.147Z,25.70
2019-02-07T13:53:20.054Z,25.70
2019-02-07T13:56:10.496Z,25.70
2019-02-07T13:59:06.300Z,25.60
2019-02-07T14:01:59.562Z,25.60
2019-02-07T14:04:52.694Z,25.60
2019-02-07T14:07:53.994Z,25.60
2019-02-07T14:10:48.039Z,25.50
2019-02-07T14:13:51.211Z,25.40
2019-02-07T14:16:38.360Z,25.30
2019-02-07T14:19:32.245Z,25.10
2019-02-07T14:22:33.062Z,25.10
2019-02-07T14:25:32.583Z,25.20
2019-02-07T14:28:25.635Z,25.10
2019-02-07T14:31:18.841Z,25.20
2019-02-07T14:34:13.803Z,25.30
2019-02-07T14:36:59.524Z,25.10
2019-02-07T14:39:55.421Z,25.10
2019-02-07T14:42:50.731Z,25.00
2019-02-07T14:45:51.549Z,25.20
2019-02-07T14:48:30.320Z,25.10
2019-02-07T14:51:07.497Z,25.00
2019-02-07T14:53:45.077Z,24.90
2019-02-07T14:56:22.890Z,24.80
2019-02-07T14:59:01.401Z,24.70
2019-02-07T15:01:39.525Z,24.70
2019-02-07T15:04:16.486Z,24.70
2019-02-07T15:06:55.441Z,24.80
2019-02-07T15:09:31.943Z,24.70
2019-02-07T15:12:09.177Z,24.60
2019-02-07T15:14:46.107Z,24.60
2019-02-07T15:17:22.445Z,24.50
2019-02-07T15:19:59.024Z,24.50
2019-02-07T15:22:36.791Z,24.50
2019-02-07T15:25:15.012Z,24.50
2019-02-07T15:27:53.537Z,24.50
2019-02-07T15:30:30.810Z,24.30
2019-02-07T15:33:08.289Z,24.30
2019-02-07T15:35:47.965Z,24.40
2019-02-07T15:38:24.856Z,24.50
2019-02-07T15:41:01.636Z,24.40
2019-02-07T15:43:38.481Z,24.40
2019-02-07T15:46:17.030Z,24.60
2019-02-07T15:48:54.221Z,24.50
2019-02-07T15:51:30.746Z,24.60
2019-02-07T15:54:07.408Z,24.40
2019-02-07T15:56:44.524Z,24.30
2019-02-07T15:59:29.344Z,24.30
2019-02-07T16:02:23.555Z,24.20
2019-02-07T16:05:00.740Z,24.20
2019-02-07T16:07:38.411Z,24.30
2019-02-07T16:10:18.307Z,24.30
2019-02-07T16:12:55.265Z,24.30
2019-02-07T16:15:32.572Z,24.40
2019-02-07T16:18:09.074Z,24.30
2019-02-07T16:20:49.004Z,24.40
2019-02-07T16:23:24.506Z,24.50
2019-02-07T16:26:01.663Z,24.50
2019-02-07T16:28:39.052Z,24.50
2019-02-07T16:31:15.891Z,24.10
2019-02-07T16:33:52.781Z,24.10
2019-02-07T16:36:29.508Z,24.20
2019-02-07T16:39:07.507Z,24.00
2019-02-07T16:41:44.679Z,23.90
2019-02-07T16:44:22.188Z,24.00
2019-02-07T16:46:59.977Z,23.90
2019-02-07T16:49:37.097Z,23.90
2019-02-07T16:52:13.603Z,23.90
2019-02-07T16:54:51.063Z,23.80
2019-02-07T16:57:27.406Z,23.80
2019-02-07T17:00:05.508Z,23.80
2019-02-07T17:02:42.127Z,23.70
2019-02-07T17:05:20.576Z,23.90
2019-02-07T17:07:57.216Z,23.80
2019-02-07T17:10:36.565Z,23.60
2019-02-07T17:13:14.149Z,23.50
2019-02-07T17:15:51.357Z,23.50
2019-02-07T17:18:28.070Z,23.50
2019-02-07T17:21:11.502Z,23.50
2019-02-07T17:23:42.915Z,23.70
2019-02-07T17:26:20.127Z,23.70
2019-02-07T17:28:56.861Z,23.60
2019-02-07T17:31:33.807Z,23.60
2019-02-07T17:34:10.538Z,23.70
2019-02-07T17:36:48.501Z,23.90
2019-02-07T17:39:25.183Z,23.90
2019-02-07T17:42:02.814Z,24.00
2019-02-07T17:44:39.561Z,23.90
2019-02-07T17:47:17.249Z,23.80
2019-02-07T17:49:54.141Z,23.70
2019-02-07T17:52:31.209Z,23.70
2019-02-07T17:55:08.732Z,23.70
2019-02-07T17:57:45.969Z,23.80
2019-02-07T18:00:31.505Z,23.60
2019-02-07T18:03:08.342Z,23.50
2019-02-07T18:05:45.078Z,23.40
2019-02-07T18:08:22.690Z,23.40
2019-02-07T18:10:59.820Z,23.50
2019-02-07T18:13:37.788Z,23.30
2019-02-07T18:16:15.055Z,23.50
2019-02-07T18:18:52.357Z,23.40
2019-02-07T18:21:34.346Z,23.20
2019-02-07T18:24:08.296Z,23.20
2019-02-07T18:26:45.707Z,23.40
2019-02-07T18:29:23.042Z,23.50
2019-02-07T18:32:00.009Z,23.50
2019-02-07T18:34:37.436Z,23.40
2019-02-07T18:37:14.129Z,23.40
2019-02-07T18:39:52.684Z,23.30
2019-02-07T18:42:28.819Z,23.40
2019-02-07T18:45:05.531Z,23.20
2019-02-07T18:47:42.416Z,23.10
2019-02-07T18:50:29.214Z,23.10
2019-02-07T18:53:05.918Z,23.20
2019-02-07T18:55:42.905Z,23.10
2019-02-07T18:58:19.279Z,23.10
2019-02-07T19:00:58.679Z,23.10
2019-02-07T19:03:38.718Z,23.10
2019-02-07T19:06:15.738Z,23.10
2019-02-07T19:08:53.291Z,23.20
2019-02-07T19:11:29.900Z,23.10
2019-02-07T19:14:06.884Z,22.90
2019-02-07T19:16:43.584Z,22.90
2019-02-07T19:19:20.443Z,22.80
2019-02-07T19:21:57.637Z,22.80
2019-02-07T19:24:34.772Z,22.80
2019-02-07T19:27:11.475Z,22.70
2019-02-07T19:29:48.227Z,22.80
2019-02-07T19:32:25.038Z,22.70
2019-02-07T19:35:02.744Z,22.70
2019-02-07T19:37:40.264Z,22.70
2019-02-07T19:40:18.226Z,22.80
2019-02-07T19:42:54.979Z,22.90
2019-02-07T19:45:33.074Z,22.80
2019-02-07T19:48:09.921Z,22.90
2019-02-07T19:50:46.689Z,22.90
2019-02-07T19:53:24.240Z,22.90
2019-02-07T19:56:01.141Z,22.90
2019-02-07T19:58:38.717Z,22.90
2019-02-07T20:01:15.311Z,22.80
2019-02-07T20:03:52.192Z,22.80
2019-02-07T20:06:28.968Z,22.80
2019-02-07T20:09:06.321Z,22.90
2019-02-07T20:11:43.982Z,22.90
2019-02-07T20:14:21.055Z,22.90
2019-02-07T20:16:57.840Z,22.80
2019-02-07T20:19:35.218Z,22.60
2019-02-07T20:22:19.876Z,22.60
2019-02-07T20:24:49.640Z,22.80
2019-02-07T20:27:26.982Z,22.80
2019-02-07T20:30:03.515Z,22.80
2019-02-07T20:32:40.885Z,22.80
2019-02-07T20:35:18.170Z,22.70
2019-02-07T20:37:56.359Z,22.70
2019-02-07T20:40:33.502Z,22.60
2019-02-07T20:43:11.176Z,22.70
2019-02-07T20:45:48.261Z,22.80
2019-02-07T20:48:24.957Z,22.90
2019-02-07T20:51:02.107Z,22.90
2019-02-07T20:53:39.314Z,22.90
2019-02-07T20:56:16.064Z,22.70
2019-02-07T20:58:53.721Z,22.60
2019-02-07T21:01:30.922Z,22.50
2019-02-07T21:04:08.204Z,22.60
2019-02-07T21:06:44.421Z,22.50
2019-02-07T21:09:21.454Z,22.40
2019-02-07T21:11:58.158Z,22.50
2019-02-07T21:14:35.554Z,22.50
2019-02-07T21:17:14.438Z,22.50
2019-02-07T21:19:50.980Z,22.40
2019-02-07T21:22:34.460Z,22.30
2019-02-07T21:25:06.664Z,22.30
2019-02-07T21:27:43.216Z,22.30
2019-02-07T21:30:25.591Z,22.40
2019-02-07T21:33:02.627Z,22.50
2019-02-07T21:35:39.270Z,22.50
2019-02-07T21:38:16.884Z,22.60
2019-02-07T21:40:53.501Z,22.60
2019-02-07T21:43:30.410Z,22.60
2019-02-07T21:46:07.330Z,22.50
2019-02-07T21:48:44.174Z,22.50
2019-02-07T21:51:20.704Z,22.30
2019-02-07T21:53:57.889Z,22.20
2019-02-07T21:56:34.982Z,22.20
2019-02-07T21:59:12.320Z,22.20
2019-02-07T22:01:50.080Z,22.10
2019-02-07T22:04:27.417Z,22.10
2019-02-07T22:07:05.250Z,22.20
2019-02-07T22:09:42.411Z,22.30
2019-02-07T22:12:19.038Z,22.30
2019-02-07T22:14:56.287Z,22.30
2019-02-07T22:17:33.211Z,22.40
2019-02-07T22:20:11.656Z,22.30
2019-02-07T22:22:49.410Z,22.20
2019-02-07T22:25:26.902Z,22.20
2019-02-07T22:28:03.457Z,22.20
2019-02-07T22:30:40.423Z,22.30
2019-02-07T22:33:17.552Z,22.30
2019-02-07T22:35:54.422Z,22.20
2019-02-07T22:38:31.045Z,22.00
2019-02-07T22:41:08.223Z,21.90
2019-02-07T22:43:45.126Z,21.80
2019-02-07T22:46:21.903Z,21.90
2019-02-07T22:48:58.799Z,22.10
2019-02-07T22:51:35.564Z,22.10
2019-02-07T22:54:13.032Z,22.00
2019-02-07T22:56:49.864Z,21.90
2019-02-07T22:59:26.930Z,21.90
2019-02-07T23:02:04.633Z,22.00
2019-02-07T23:04:42.099Z,21.80
2019-02-07T23:07:18.580Z,21.70
2019-02-07T23:09:55.381Z,21.60
2019-02-07T23:12:32.255Z,21.70
2019-02-07T23:15:09.848Z,21.80
2019-02-07T23:17:47.657Z,21.70
2019-02-07T23:20:25.020Z,21.60
2019-02-07T23:23:05.227Z,21.50
2019-02-07T23:25:39.924Z,21.70
2019-02-07T23:28:17.045Z,21.80
2019-02-07T23:30:53.922Z,21.60
2019-02-07T23:33:30.502Z,21.50
2019-02-07T23:36:07.971Z,21.80
2019-02-07T23:38:45.707Z,21.50
2019-02-07T23:41:23.320Z,21.40
2019-02-07T23:44:00.330Z,21.60
2019-02-07T23:46:37.066Z,21.70
2019-02-07T23:49:15.266Z,21.80
2019-02-07T23:51:52.283Z,21.70
2019-02-07T23:54:29.537Z,21.50
2019-02-07T23:57:06.639Z,21.60
2019-02-07T23:59:43.660Z,21.70
